Time;durP1;ratioP1;P1;durP2;ratioP2;P2;SDS_P1;SDS_P2;PMS_P1;PMS_P2;Temp;Humidity;BMP_temperature;BMP_pressure;BME280_temperature;BME280_humidity;BME280_pressure;Samples;Min_cycle;Max_cycle;Signal;HPM_P1;HPM_P2
2023/09/20 00:03:36;;;;;;;2.45;1.65;;;;;;;;;;10269899;28;20967;-75
2023/09/20 00:08:39;;;;;;;3.20;1.40;;;;;;;;;;10267207;28;20483;-75
2023/09/20 00:13:42;;;;;;;3.55;1.80;;;;;;;;;;10273515;28;20512;-77
2023/09/20 00:18:46;;;;;;;2.67;1.33;;;;;;;;;;10272556;28;20532;-74
2023/09/20 00:23:48;;;;;;;3.30;1.43;;;;;;;;;;10274840;28;20935;-73
2023/09/20 00:28:51;;;;;;;3.80;1.50;;;;;;;;;;10269672;28;20538;-76
2023/09/20 00:33:56;;;;;;;4.00;1.60;;;;;;;;;;10272902;28;20568;-76
2023/09/20 00:38:58;;;;;;;4.07;1.33;;;;;;;;;;10269335;28;20466;-75
2023/09/20 00:44:01;;;;;;;3.85;1.40;;;;;;;;;;10261092;28;20443;-74
2023/09/20 00:49:06;;;;;;;2.70;1.40;;;;;;;;;;10269686;28;20808;-75
2023/09/20 00:54:09;;;;;;;2.53;1.30;;;;;;;;;;10272404;28;20447;-74
2023/09/20 00:59:13;;;;;;;2.00;1.15;;;;;;;;;;10268874;28;20436;-74
2023/09/20 01:04:17;;;;;;;2.40;1.30;;;;;;;;;;10272844;28;20443;-75
2023/09/20 01:09:22;;;;;;;1.73;1.10;;;;;;;;;;10272493;28;20966;-74
2023/09/20 01:14:27;;;;;;;2.90;1.20;;;;;;;;;;10269108;28;21009;-74
2023/09/20 01:19:32;;;;;;;1.85;1.38;;;;;;;;;;10270671;28;20492;-74
2023/09/20 01:24:37;;;;;;;2.15;1.13;;;;;;;;;;10271774;28;20439;-74
2023/09/20 01:29:40;;;;;;;1.83;1.20;;;;;;;;;;10272638;28;20901;-74
2023/09/20 01:34:43;;;;;;;2.47;1.10;;;;;;;;;;10268291;28;20438;-73
2023/09/20 01:39:47;;;;;;;2.55;1.20;;;;;;;;;;10266110;28;20432;-74
2023/09/20 01:44:51;;;;;;;2.20;1.10;;;;;;;;;;10264605;28;20967;-73
2023/09/20 01:49:53;;;;;;;1.67;1.20;;;;;;;;;;10263827;28;20522;-73
2023/09/20 01:54:58;;;;;;;2.10;1.10;;;;;;;;;;10268656;28;20442;-75
2023/09/20 02:00:03;;;;;;;2.30;1.30;;;;;;;;;;10272332;28;20503;-75
2023/09/20 02:05:09;;;;;;;4.22;1.17;;;;;;;;;;10270143;28;20509;-75
2023/09/20 02:10:14;;;;;;;3.10;1.33;;;;;;;;;;10271613;28;20601;-78
2023/09/20 02:15:17;;;;;;;2.78;1.50;;;;;;;;;;10269169;28;20478;-75
2023/09/20 02:20:21;;;;;;;2.73;1.30;;;;;;;;;;10272183;28;20502;-75
2023/09/20 02:25:26;;;;;;;2.10;1.38;;;;;;;;;;10259934;28;20473;-75
2023/09/20 02:30:31;;;;;;;1.73;1.23;;;;;;;;;;10266925;28;20435;-75
2023/09/20 02:35:35;;;;;;;1.87;1.40;;;;;;;;;;10274778;28;20435;-75
2023/09/20 02:40:39;;;;;;;2.17;1.50;;;;;;;;;;10276321;28;20439;-75
2023/09/20 02:45:45;;;;;;;2.78;1.52;;;;;;;;;;10270016;28;20475;-75
2023/09/20 02:50:48;;;;;;;1.88;1.00;;;;;;;;;;10272495;28;20966;-75
2023/09/20 02:55:51;;;;;;;3.20;1.40;;;;;;;;;;10276484;28;20531;-75
2023/09/20 03:00:54;;;;;;;3.30;1.40;;;;;;;;;;10276833;28;21024;-75
2023/09/20 03:05:57;;;;;;;2.17;1.33;;;;;;;;;;10280078;28;20436;-75
2023/09/20 03:11:01;;;;;;;3.25;1.50;;;;;;;;;;10276053;28;20425;-76
2023/09/20 03:16:04;;;;;;;1.90;1.30;;;;;;;;;;10279939;28;20439;-75
2023/09/20 03:21:07;;;;;;;1.77;1.23;;;;;;;;;;10274907;28;20505;-75
2023/09/20 03:26:13;;;;;;;1.90;1.20;;;;;;;;;;10275284;28;20482;-77
2023/09/20 03:31:16;;;;;;;3.42;1.40;;;;;;;;;;10273567;28;20802;-76
2023/09/20 03:36:22;;;;;;;1.20;1.00;;;;;;;;;;10270023;28;20437;-74
2023/09/20 03:41:26;;;;;;;3.42;1.20;;;;;;;;;;10272223;28;20441;-74
2023/09/20 03:46:29;;;;;;;2.53;1.30;;;;;;;;;;10273730;28;20890;-74
2023/09/20 03:51:32;;;;;;;2.83;1.30;;;;;;;;;;10273703;28;20548;-75
2023/09/20 03:56:37;;;;;;;2.28;1.30;;;;;;;;;;10274624;28;20431;-73
2023/09/20 04:01:40;;;;;;;3.10;1.50;;;;;;;;;;10271522;28;20475;-75
2023/09/20 04:06:44;;;;;;;1.70;1.30;;;;;;;;;;10275488;28;20470;-75
2023/09/20 04:11:48;;;;;;;2.97;1.40;;;;;;;;;;10271155;28;20469;-75
2023/09/20 04:16:52;;;;;;;3.53;1.40;;;;;;;;;;10270024;28;20509;-76
2023/09/20 04:21:56;;;;;;;2.58;1.48;;;;;;;;;;10270241;28;20542;-73
2023/09/20 04:27:02;;;;;;;2.50;1.30;;;;;;;;;;10275117;28;20477;-75
2023/09/20 04:32:06;;;;;;;2.13;1.20;;;;;;;;;;10273761;28;20813;-75
2023/09/20 04:37:09;;;;;;;2.65;1.30;;;;;;;;;;10271559;28;20473;-75
2023/09/20 04:42:13;;;;;;;3.42;1.50;;;;;;;;;;10267012;28;20438;-75
2023/09/20 04:47:16;;;;;;;3.90;1.48;;;;;;;;;;10268594;28;20939;-75
2023/09/20 04:52:19;;;;;;;3.33;1.60;;;;;;;;;;10270757;28;20472;-75
2023/09/20 04:57:23;;;;;;;2.93;1.60;;;;;;;;;;10272011;28;20431;-75
2023/09/20 05:02:26;;;;;;;4.63;1.70;;;;;;;;;;10266863;28;20439;-75
2023/09/20 05:07:29;;;;;;;4.10;2.10;;;;;;;;;;10269802;28;20432;-75
2023/09/20 05:12:32;;;;;;;4.97;2.00;;;;;;;;;;10268889;28;20446;-76
2023/09/20 05:17:35;;;;;;;4.35;1.83;;;;;;;;;;10266665;28;20466;-75
2023/09/20 05:22:38;;;;;;;3.05;1.95;;;;;;;;;;10268411;28;20832;-75
2023/09/20 05:27:43;;;;;;;5.38;2.00;;;;;;;;;;10267516;28;20519;-75
2023/09/20 05:32:47;;;;;;;5.65;1.95;;;;;;;;;;10271935;28;20460;-75
2023/09/20 05:37:50;;;;;;;4.28;2.05;;;;;;;;;;10266924;28;20909;-76
2023/09/20 05:42:55;;;;;;;5.18;2.10;;;;;;;;;;10270789;28;20436;-76
2023/09/20 05:47:58;;;;;;;4.15;2.00;;;;;;;;;;10271478;28;20481;-75
2023/09/20 05:53:01;;;;;;;5.85;1.80;;;;;;;;;;10274249;28;20431;-74
2023/09/20 05:58:05;;;;;;;5.68;1.60;;;;;;;;;;10270609;28;20462;-73
2023/09/20 06:03:10;;;;;;;3.78;1.90;;;;;;;;;;10271887;28;20602;-73
2023/09/20 06:08:14;;;;;;;5.38;1.80;;;;;;;;;;10277108;28;20428;-74
2023/09/20 06:13:19;;;;;;;4.78;2.10;;;;;;;;;;10277907;28;20534;-73
2023/09/20 06:18:22;;;;;;;5.93;1.98;;;;;;;;;;10278018;28;20435;-78
2023/09/20 06:23:25;;;;;;;3.90;2.10;;;;;;;;;;10279717;28;20948;-75
2023/09/20 06:28:31;;;;;;;4.65;2.15;;;;;;;;;;10276310;28;20439;-75
2023/09/20 06:33:33;;;;;;;5.53;1.98;;;;;;;;;;10255306;28;20633;-74
2023/09/20 06:38:36;;;;;;;8.30;2.17;;;;;;;;;;10279469;28;20877;-74
2023/09/20 06:43:42;;;;;;;7.47;2.13;;;;;;;;;;10272572;28;20510;-73
2023/09/20 06:48:44;;;;;;;5.03;2.10;;;;;;;;;;10279381;28;20440;-75
2023/09/20 06:53:48;;;;;;;6.18;2.65;;;;;;;;;;10272326;28;20494;-75
2023/09/20 06:58:53;;;;;;;5.45;2.25;;;;;;;;;;10272838;28;21117;-75
2023/09/20 07:03:56;;;;;;;6.20;2.33;;;;;;;;;;10272251;28;20554;-76
2023/09/20 07:08:58;;;;;;;6.40;2.58;;;;;;;;;;10271685;28;20443;-77
2023/09/20 07:14:05;;;;;;;5.80;2.10;;;;;;;;;;10274025;28;20452;-76
2023/09/20 07:19:13;;;;;;;3.75;2.30;;;;;;;;;;10269997;28;20433;-76
2023/09/20 07:24:15;;;;;;;4.15;2.10;;;;;;;;;;10260130;28;20431;-76
2023/09/20 07:29:21;;;;;;;5.47;1.90;;;;;;;;;;10276242;28;20781;-77
2023/09/20 07:34:24;;;;;;;2.55;2.00;;;;;;;;;;10271270;28;20457;-76
2023/09/20 07:39:28;;;;;;;4.80;2.22;;;;;;;;;;10269875;28;20546;-77
2023/09/20 07:44:35;;;;;;;4.38;1.90;;;;;;;;;;10266830;28;20966;-77
2023/09/20 07:49:39;;;;;;;4.97;1.80;;;;;;;;;;10276371;28;20436;-77
2023/09/20 07:54:42;;;;;;;4.53;2.03;;;;;;;;;;10276256;28;20443;-77
2023/09/20 07:59:46;;;;;;;3.75;2.03;;;;;;;;;;10269251;28;20528;-77
2023/09/20 08:04:49;;;;;;;5.25;2.40;;;;;;;;;;10276219;28;20956;-77
2023/09/20 08:09:52;;;;;;;4.20;2.00;;;;;;;;;;10272089;28;20924;-77
2023/09/20 08:14:57;;;;;;;3.58;1.92;;;;;;;;;;10254904;28;20546;-77
2023/09/20 08:19:59;;;;;;;3.70;2.42;;;;;;;;;;10273017;28;20457;-77
2023/09/20 09:02:36;;;;;;;3.00;1.90;;;;;;;;;;10267616;28;20431;-77
2023/09/20 09:07:39;;;;;;;2.00;1.80;;;;;;;;;;10263561;28;20433;-77
2023/09/20 09:12:42;;;;;;;2.53;1.83;;;;;;;;;;10261358;28;20432;-77
2023/09/20 09:17:46;;;;;;;2.67;2.00;;;;;;;;;;10265711;28;20522;-78
2023/09/20 09:22:50;;;;;;;2.22;1.92;;;;;;;;;;10268635;28;20442;-77
2023/09/20 09:27:54;;;;;;;3.13;2.00;;;;;;;;;;10269360;28;20464;-77
2023/09/20 09:32:58;;;;;;;3.20;1.75;;;;;;;;;;10271182;28;20523;-77
2023/09/20 09:38:01;;;;;;;3.28;2.28;;;;;;;;;;10272281;28;21028;-78
2023/09/20 09:43:15;;;;;;;2.70;1.80;;;;;;;;;;10276480;28;20435;-77
2023/09/20 09:48:20;;;;;;;2.22;1.75;;;;;;;;;;10279492;28;20438;-78
2023/09/20 09:53:24;;;;;;;2.30;1.70;;;;;;;;;;10279228;28;20498;-78
2023/09/20 09:58:27;;;;;;;2.38;2.00;;;;;;;;;;10270984;28;20440;-78
2023/09/20 10:03:32;;;;;;;1.92;1.60;;;;;;;;;;10274906;28;20566;-78
2023/09/20 10:08:38;;;;;;;2.70;2.40;;;;;;;;;;10275131;28;20538;-79
2023/09/20 10:13:41;;;;;;;2.00;1.80;;;;;;;;;;10274134;28;20883;-77
2023/09/20 10:19:04;;;;;;;2.92;1.70;;;;;;;;;;10274412;28;20516;-77
2023/09/20 10:24:17;;;;;;;1.90;1.70;;;;;;;;;;10272839;28;20641;-78
2023/09/20 10:29:21;;;;;;;2.60;2.10;;;;;;;;;;10276490;28;20444;-78
2023/09/20 10:34:25;;;;;;;2.33;1.90;;;;;;;;;;10273544;28;20470;-78
2023/09/20 10:39:30;;;;;;;2.75;1.92;;;;;;;;;;10278840;28;20978;-78
2023/09/20 10:44:36;;;;;;;2.67;1.80;;;;;;;;;;10271712;28;20979;-78
2023/09/20 10:49:41;;;;;;;2.70;2.00;;;;;;;;;;10276197;28;20798;-78
2023/09/20 10:54:46;;;;;;;2.30;2.10;;;;;;;;;;10274990;28;20458;-78
2023/09/20 10:59:48;;;;;;;2.90;2.20;;;;;;;;;;10272154;28;20515;-78
2023/09/20 11:04:51;;;;;;;2.40;1.75;;;;;;;;;;10274363;28;20435;-77
2023/09/20 11:09:57;;;;;;;2.67;2.00;;;;;;;;;;10277587;28;20943;-77
2023/09/20 11:15:01;;;;;;;2.30;2.10;;;;;;;;;;10273119;28;20797;-77
2023/09/20 11:20:04;;;;;;;2.95;2.10;;;;;;;;;;10276854;28;20882;-77
2023/09/20 11:25:09;;;;;;;1.90;1.80;;;;;;;;;;10272525;28;20987;-78
2023/09/20 11:30:12;;;;;;;2.38;1.70;;;;;;;;;;10272721;28;20436;-77
2023/09/20 11:35:30;;;;;;;2.10;1.90;;;;;;;;;;10257513;28;20815;-77
2023/09/20 11:40:37;;;;;;;3.28;2.20;;;;;;;;;;10275524;28;20519;-77
2023/09/20 11:45:41;;;;;;;2.88;1.90;;;;;;;;;;10270502;28;20467;-77
2023/09/20 11:50:47;;;;;;;2.88;2.20;;;;;;;;;;10276375;28;20436;-78
2023/09/20 11:55:54;;;;;;;3.50;1.90;;;;;;;;;;10278436;28;21052;-78
2023/09/20 12:00:57;;;;;;;2.97;1.80;;;;;;;;;;10273813;28;20522;-78
2023/09/20 12:06:00;;;;;;;3.45;1.90;;;;;;;;;;10272182;28;20436;-77
2023/09/20 12:11:07;;;;;;;2.20;2.00;;;;;;;;;;10275273;28;20443;-78
2023/09/20 12:16:11;;;;;;;3.10;1.92;;;;;;;;;;10269374;28;20560;-78
2023/09/20 12:21:15;;;;;;;1.98;1.83;;;;;;;;;;10264150;28;20461;-77
2023/09/20 12:26:20;;;;;;;2.17;1.90;;;;;;;;;;10270242;28;20435;-77
2023/09/20 12:31:24;;;;;;;2.42;1.80;;;;;;;;;;10274930;28;20499;-77
2023/09/20 12:36:28;;;;;;;2.53;2.00;;;;;;;;;;10266942;28;20571;-77
2023/09/20 12:41:32;;;;;;;2.45;1.70;;;;;;;;;;10271467;28;20514;-76
2023/09/20 12:46:36;;;;;;;1.70;1.60;;;;;;;;;;10269498;28;20467;-76
2023/09/20 12:51:38;;;;;;;1.85;1.63;;;;;;;;;;10267854;28;20941;-77
2023/09/20 12:56:42;;;;;;;2.38;1.65;;;;;;;;;;10269012;28;20440;-76
2023/09/20 13:01:49;;;;;;;2.80;1.80;;;;;;;;;;10272291;28;20443;-76
2023/09/20 13:06:52;;;;;;;2.85;1.60;;;;;;;;;;10277166;28;20484;-76
2023/09/20 13:11:56;;;;;;;2.90;1.67;;;;;;;;;;10272384;28;20442;-77
2023/09/20 13:17:00;;;;;;;1.73;1.50;;;;;;;;;;10271788;28;20510;-76
2023/09/20 13:22:04;;;;;;;2.37;1.70;;;;;;;;;;10274838;28;20794;-77
2023/09/20 13:27:10;;;;;;;1.45;1.35;;;;;;;;;;10264135;28;22208;-76
2023/09/20 13:32:13;;;;;;;1.98;1.40;;;;;;;;;;10271264;28;20539;-76
2023/09/20 13:37:16;;;;;;;2.27;1.40;;;;;;;;;;10274839;28;20917;-76
2023/09/20 13:42:20;;;;;;;2.17;1.48;;;;;;;;;;10271433;28;20873;-77
2023/09/20 13:47:22;;;;;;;3.17;1.60;;;;;;;;;;10271770;28;20547;-77
2023/09/20 13:52:29;;;;;;;2.13;1.60;;;;;;;;;;10266035;28;20511;-77
2023/09/20 13:57:33;;;;;;;2.70;1.38;;;;;;;;;;10270563;28;20441;-77
2023/09/20 14:02:36;;;;;;;2.15;1.45;;;;;;;;;;10270167;28;20444;-77
2023/09/20 14:07:39;;;;;;;2.95;1.30;;;;;;;;;;10271093;28;20795;-77
2023/09/20 14:12:44;;;;;;;2.42;1.30;;;;;;;;;;10274690;28;20858;-77
2023/09/20 14:17:47;;;;;;;3.85;1.60;;;;;;;;;;10268455;28;20477;-77
2023/09/20 14:22:52;;;;;;;2.10;1.30;;;;;;;;;;10268301;28;20564;-77
2023/09/20 14:27:57;;;;;;;3.45;1.52;;;;;;;;;;10277781;28;20428;-79
2023/09/20 14:33:01;;;;;;;3.88;1.65;;;;;;;;;;10273611;28;21178;-78
2023/09/20 14:38:04;;;;;;;1.88;1.10;;;;;;;;;;10272421;28;20439;-78
2023/09/20 14:43:08;;;;;;;3.10;1.40;;;;;;;;;;10278645;28;20559;-79
2023/09/20 14:48:13;;;;;;;3.25;1.55;;;;;;;;;;10275847;28;20949;-77
2023/09/20 14:53:18;;;;;;;1.75;1.08;;;;;;;;;;10271969;28;20533;-76
2023/09/20 14:58:24;;;;;;;3.28;1.33;;;;;;;;;;10274798;28;20919;-76
2023/09/20 15:03:26;;;;;;;3.03;1.30;;;;;;;;;;10276104;28;20452;-77
2023/09/20 15:08:29;;;;;;;2.50;1.25;;;;;;;;;;10282989;28;20438;-77
2023/09/20 15:13:33;;;;;;;3.20;1.50;;;;;;;;;;10276671;28;20460;-76
2023/09/20 15:18:36;;;;;;;3.40;1.20;;;;;;;;;;10280131;28;20443;-76
2023/09/20 15:23:39;;;;;;;3.72;1.30;;;;;;;;;;10272469;28;20441;-76
2023/09/20 15:28:43;;;;;;;3.47;1.40;;;;;;;;;;10273178;28;20731;-76
2023/09/20 15:33:46;;;;;;;4.20;1.27;;;;;;;;;;10267047;28;20440;-76
2023/09/20 15:38:53;;;;;;;2.63;1.40;;;;;;;;;;10271936;28;20442;-77
2023/09/20 15:43:58;;;;;;;3.17;1.48;;;;;;;;;;10271236;28;20953;-76
2023/09/20 15:49:01;;;;;;;2.90;1.50;;;;;;;;;;10279797;28;20526;-76
2023/09/20 15:54:04;;;;;;;3.53;1.40;;;;;;;;;;10274644;28;20511;-76
2023/09/20 15:59:11;;;;;;;3.43;1.70;;;;;;;;;;10269330;28;20887;-77
2023/09/20 16:04:14;;;;;;;3.28;1.50;;;;;;;;;;10276931;28;20439;-77
2023/09/20 16:09:17;;;;;;;2.78;1.80;;;;;;;;;;10277635;28;20439;-76
2023/09/20 16:14:21;;;;;;;4.93;1.65;;;;;;;;;;10277419;28;20436;-75
2023/09/20 16:19:24;;;;;;;3.63;2.00;;;;;;;;;;10275141;28;20443;-75
2023/09/20 16:24:28;;;;;;;5.23;1.90;;;;;;;;;;10272473;28;20450;-76
2023/09/20 16:29:32;;;;;;;2.83;1.60;;;;;;;;;;10271212;28;20471;-76
2023/09/20 16:34:37;;;;;;;3.42;1.70;;;;;;;;;;10268705;28;20439;-76
2023/09/20 16:39:39;;;;;;;3.40;1.70;;;;;;;;;;10264461;28;20443;-77
2023/09/20 16:44:43;;;;;;;3.72;1.58;;;;;;;;;;10269291;28;20445;-76
2023/09/20 16:49:46;;;;;;;2.38;1.60;;;;;;;;;;10265908;28;20446;-75
2023/09/20 16:54:49;;;;;;;3.22;1.80;;;;;;;;;;10271007;28;20520;-75
2023/09/20 16:59:53;;;;;;;3.22;1.67;;;;;;;;;;10276281;28;20519;-75
2023/09/20 17:04:56;;;;;;;3.47;2.00;;;;;;;;;;10268010;28;20762;-75
2023/09/20 17:09:59;;;;;;;3.55;1.80;;;;;;;;;;10271145;28;20805;-76
2023/09/20 17:15:03;;;;;;;3.25;1.80;;;;;;;;;;10273720;28;20469;-76
2023/09/20 17:20:11;;;;;;;4.63;2.00;;;;;;;;;;10252500;28;20424;-76
2023/09/20 17:25:15;;;;;;;3.30;1.90;;;;;;;;;;10268305;28;20467;-77
2023/09/20 17:30:20;;;;;;;2.60;1.85;;;;;;;;;;10255852;28;20423;-75
2023/09/20 17:35:23;;;;;;;4.07;2.15;;;;;;;;;;10274351;28;20428;-77
2023/09/20 17:40:29;;;;;;;4.97;2.10;;;;;;;;;;10264628;28;20423;-74
2023/09/20 17:45:33;;;;;;;4.78;2.10;;;;;;;;;;10266477;28;20520;-76
2023/09/20 17:50:36;;;;;;;5.03;2.10;;;;;;;;;;10269955;28;20494;-74
2023/09/20 17:55:41;;;;;;;5.85;2.30;;;;;;;;;;10271172;28;20442;-75
2023/09/20 18:00:46;;;;;;;3.63;2.20;;;;;;;;;;10270727;28;20672;-76
2023/09/20 18:05:48;;;;;;;4.18;2.22;;;;;;;;;;10277571;28;20455;-77
2023/09/20 18:10:51;;;;;;;6.32;2.40;;;;;;;;;;10277006;28;20482;-77
2023/09/20 18:15:57;;;;;;;4.37;2.40;;;;;;;;;;10279432;28;20447;-76
2023/09/20 18:21:00;;;;;;;4.60;2.43;;;;;;;;;;10275861;28;20895;-76
2023/09/20 18:26:03;;;;;;;5.80;2.78;;;;;;;;;;10279873;28;21020;-76
2023/09/20 18:31:15;;;;;;;5.53;2.50;;;;;;;;;;10277294;28;20472;-77
2023/09/20 18:36:18;;;;;;;7.78;3.40;;;;;;;;;;10263959;28;20459;-76
2023/09/20 18:41:21;;;;;;;6.70;3.40;;;;;;;;;;10274824;28;20424;-76
2023/09/20 18:46:26;;;;;;;4.43;2.50;;;;;;;;;;10267465;28;20444;-75
2023/09/20 18:51:29;;;;;;;5.88;2.80;;;;;;;;;;10273928;28;20782;-76
2023/09/20 18:56:33;;;;;;;5.38;2.80;;;;;;;;;;10278740;28;20527;-76
2023/09/20 19:01:39;;;;;;;6.53;3.00;;;;;;;;;;10271815;28;20436;-78
2023/09/20 19:06:41;;;;;;;5.35;3.00;;;;;;;;;;10278487;28;20442;-76
2023/09/20 19:11:46;;;;;;;7.53;3.10;;;;;;;;;;10276632;28;20436;-76
2023/09/20 19:16:51;;;;;;;6.00;2.87;;;;;;;;;;10259451;28;20548;-77
2023/09/20 19:21:54;;;;;;;9.23;3.20;;;;;;;;;;10271355;28;20432;-77
2023/09/20 19:26:56;;;;;;;8.75;3.45;;;;;;;;;;10273101;28;20447;-77
2023/09/20 19:32:01;;;;;;;7.20;3.55;;;;;;;;;;10272394;28;20498;-76
2023/09/20 19:37:04;;;;;;;6.90;3.43;;;;;;;;;;10270085;28;20447;-76
2023/09/20 19:42:07;;;;;;;6.93;3.27;;;;;;;;;;10268744;28;20877;-77
2023/09/20 19:47:11;;;;;;;4.78;3.40;;;;;;;;;;10272240;28;20991;-76
2023/09/20 19:52:14;;;;;;;6.75;3.47;;;;;;;;;;10273151;28;20915;-76
2023/09/20 19:57:18;;;;;;;6.40;3.38;;;;;;;;;;10275454;28;20442;-76
2023/09/20 20:02:23;;;;;;;6.67;3.40;;;;;;;;;;10249424;28;20766;-76
2023/09/20 20:07:26;;;;;;;7.57;3.30;;;;;;;;;;10272625;28;20610;-75
2023/09/20 20:12:29;;;;;;;7.30;4.35;;;;;;;;;;10271691;28;20905;-76
2023/09/20 20:17:36;;;;;;;7.93;3.87;;;;;;;;;;10271931;28;20454;-76
2023/09/20 20:22:38;;;;;;;7.18;3.78;;;;;;;;;;10268171;28;20428;-75
2023/09/20 20:27:41;;;;;;;7.20;4.15;;;;;;;;;;10253284;28;20467;-75
2023/09/20 20:32:48;;;;;;;8.02;4.38;;;;;;;;;;10272327;28;20464;-76
2023/09/20 20:37:52;;;;;;;6.10;3.63;;;;;;;;;;10268962;28;20468;-77
2023/09/20 20:42:57;;;;;;;7.30;4.20;;;;;;;;;;10272749;28;20447;-77
2023/09/20 20:48:02;;;;;;;8.83;4.50;;;;;;;;;;10270933;28;20838;-76
2023/09/20 20:53:09;;;;;;;7.50;3.87;;;;;;;;;;10269455;28;20463;-76
2023/09/20 20:58:13;;;;;;;7.50;3.90;;;;;;;;;;10270545;28;20439;-76
2023/09/20 21:03:19;;;;;;;12.18;8.20;;;;;;;;;;10271990;28;20456;-77
2023/09/20 21:08:23;;;;;;;11.10;5.90;;;;;;;;;;10268867;28;20443;-75
2023/09/20 21:13:26;;;;;;;8.75;4.70;;;;;;;;;;10265475;28;21090;-76
2023/09/20 21:18:30;;;;;;;8.40;4.30;;;;;;;;;;10269926;28;20436;-76
2023/09/20 21:23:34;;;;;;;8.27;4.47;;;;;;;;;;10271148;28;20439;-75
2023/09/20 21:28:36;;;;;;;7.97;3.90;;;;;;;;;;10267024;28;20430;-75
2023/09/20 21:33:43;;;;;;;8.63;3.85;;;;;;;;;;10271719;28;20424;-75
2023/09/20 21:38:47;;;;;;;7.88;4.28;;;;;;;;;;10271912;28;20881;-75
2023/09/20 21:43:50;;;;;;;8.07;4.13;;;;;;;;;;10266142;28;20428;-76
2023/09/20 21:48:54;;;;;;;6.27;4.17;;;;;;;;;;10272583;28;20517;-76
2023/09/20 21:53:57;;;;;;;8.77;4.32;;;;;;;;;;10269963;28;20987;-74
2023/09/20 21:59:00;;;;;;;8.35;4.40;;;;;;;;;;10266480;28;20765;-75
2023/09/20 22:04:05;;;;;;;7.68;4.07;;;;;;;;;;10268127;28;20447;-76
2023/09/20 22:09:09;;;;;;;7.93;4.22;;;;;;;;;;10264224;28;20445;-75
2023/09/20 22:14:13;;;;;;;7.75;3.95;;;;;;;;;;10268569;28;20432;-75
2023/09/20 22:19:17;;;;;;;8.23;4.53;;;;;;;;;;10267323;28;20986;-75
2023/09/20 22:24:21;;;;;;;7.73;4.77;;;;;;;;;;10253520;28;20577;-75
2023/09/20 22:29:23;;;;;;;7.43;4.60;;;;;;;;;;10265415;28;20443;-74
2023/09/20 22:34:28;;;;;;;9.30;4.65;;;;;;;;;;10266629;28;20416;-74
2023/09/20 22:39:31;;;;;;;7.45;4.40;;;;;;;;;;10265340;28;20510;-75
2023/09/20 22:44:33;;;;;;;9.40;4.75;;;;;;;;;;10267077;28;20431;-75
2023/09/20 22:49:38;;;;;;;9.55;4.65;;;;;;;;;;10272859;28;21214;-76
2023/09/20 22:54:41;;;;;;;8.10;4.88;;;;;;;;;;10274217;28;20479;-75
2023/09/20 22:59:44;;;;;;;8.68;4.70;;;;;;;;;;10268985;28;20515;-76
2023/09/20 23:04:48;;;;;;;8.18;5.00;;;;;;;;;;10271570;28;20486;-75
2023/09/20 23:09:52;;;;;;;9.57;4.85;;;;;;;;;;10273490;28;20483;-77
2023/09/20 23:14:55;;;;;;;9.07;4.90;;;;;;;;;;10270078;28;20442;-75
2023/09/20 23:20:19;;;;;;;9.93;5.00;;;;;;;;;;10270525;28;20447;-76
2023/09/20 23:25:21;;;;;;;8.80;5.03;;;;;;;;;;10275323;28;20447;-75
2023/09/20 23:30:24;;;;;;;9.23;5.10;;;;;;;;;;10273155;28;20795;-75
2023/09/20 23:35:29;;;;;;;9.13;4.97;;;;;;;;;;10275855;28;20448;-75
2023/09/20 23:40:32;;;;;;;8.85;5.05;;;;;;;;;;10275755;28;20467;-75
2023/09/20 23:45:35;;;;;;;9.57;5.32;;;;;;;;;;10275076;28;20436;-75
2023/09/20 23:50:40;;;;;;;10.33;5.00;;;;;;;;;;10274142;28;20443;-76
2023/09/20 23:55:43;;;;;;;10.38;5.35;;;;;;;;;;10267950;28;20447;-75
